createdAt,value
2023-05-01T00:02:05.302Z,6.27
2023-05-01T00:04:50.367Z,6.10
2023-05-01T00:07:35.572Z,6.10
2023-05-01T00:10:20.974Z,5.70
2023-05-01T00:13:06.569Z,6.63
2023-05-01T00:15:52.049Z,6.10
2023-05-01T00:18:37.626Z,6.53
2023-05-01T00:21:22.768Z,6.30
2023-05-01T00:24:08.335Z,6.73
2023-05-01T00:26:53.556Z,5.70
2023-05-01T00:29:38.774Z,6.63
2023-05-01T00:32:23.925Z,5.83
2023-05-01T00:35:09.398Z,6.03
2023-05-01T00:37:54.846Z,5.77
2023-05-01T00:40:44.518Z,6.43
2023-05-01T00:43:29.945Z,6.63
2023-05-01T00:46:15.401Z,6.80
2023-05-01T00:49:00.680Z,6.13
2023-05-01T00:51:51.563Z,6.13
2023-05-01T00:54:37.903Z,6.60
2023-05-01T00:57:23.440Z,6.40
2023-05-01T01:00:09.332Z,6.77
2023-05-01T01:02:55.010Z,6.20
2023-05-01T01:05:54.487Z,6.87
2023-05-01T01:09:00.007Z,6.60
2023-05-01T01:12:13.623Z,6.97
2023-05-01T01:15:01.733Z,5.77
2023-05-01T01:17:57.212Z,6.00
2023-05-01T01:21:05.340Z,6.10
2023-05-01T01:24:15.114Z,6.20
2023-05-01T01:27:39.326Z,5.90
2023-05-01T01:30:46.906Z,5.27
2023-05-01T01:33:51.071Z,6.10
2023-05-01T01:37:19.172Z,6.47
2023-05-01T01:40:16.930Z,6.70
2023-05-01T01:43:16.981Z,6.73
2023-05-01T01:46:05.256Z,6.43
2023-05-01T01:48:52.691Z,6.50
2023-05-01T01:51:41.192Z,6.70
2023-05-01T01:54:33.052Z,7.23
2023-05-01T01:57:20.918Z,6.37
2023-05-01T02:00:10.869Z,6.73
2023-05-01T02:03:00.974Z,7.40
2023-05-01T02:05:47.860Z,7.00
2023-05-01T02:08:36.017Z,6.80
2023-05-01T02:11:22.779Z,6.33
2023-05-01T02:14:09.750Z,6.63
2023-05-01T02:16:55.504Z,6.10
2023-05-01T02:19:41.881Z,5.97
2023-05-01T02:22:28.448Z,6.27
2023-05-01T02:25:14.558Z,6.00
2023-05-01T02:28:03.555Z,6.10
2023-05-01T02:30:49.190Z,6.57
2023-05-01T02:33:34.677Z,6.23
2023-05-01T02:36:19.957Z,6.77
2023-05-01T02:39:06.410Z,6.83
2023-05-01T02:41:53.293Z,6.50
2023-05-01T02:44:42.838Z,6.20
2023-05-01T02:47:31.905Z,6.63
2023-05-01T02:50:19.558Z,6.87
2023-05-01T02:53:04.886Z,6.47
2023-05-01T02:56:06.165Z,6.23
2023-05-01T02:58:51.887Z,5.80
2023-05-01T03:01:37.151Z,6.93
2023-05-01T03:04:22.378Z,6.50
2023-05-01T03:07:07.741Z,6.30
2023-05-01T03:09:53.017Z,6.63
2023-05-01T03:12:38.012Z,7.43
2023-05-01T03:15:23.203Z,7.13
2023-05-01T03:18:08.550Z,7.17
2023-05-01T03:20:55.075Z,6.87
2023-05-01T03:23:40.125Z,7.00
2023-05-01T03:26:25.661Z,6.50
2023-05-01T03:29:10.814Z,6.90
2023-05-01T03:31:55.946Z,6.90
2023-05-01T03:34:41.117Z,6.83
2023-05-01T03:37:26.334Z,7.40
2023-05-01T03:40:11.983Z,7.33
2023-05-01T03:43:16.547Z,7.27
2023-05-01T03:46:02.531Z,6.77
2023-05-01T03:48:47.761Z,7.30
2023-05-01T03:51:32.753Z,7.13
2023-05-01T03:54:18.321Z,7.03
2023-05-01T03:57:15.191Z,6.77
2023-05-01T04:00:01.329Z,6.63
2023-05-01T04:02:50.188Z,6.73
2023-05-01T04:05:39.758Z,7.07
2023-05-01T04:08:25.189Z,6.83
2023-05-01T04:11:10.629Z,7.20
2023-05-01T04:13:55.783Z,7.00
2023-05-01T04:16:41.694Z,6.87
2023-05-01T04:19:27.248Z,6.73
2023-05-01T04:22:16.135Z,6.53
2023-05-01T04:25:01.713Z,7.13
2023-05-01T04:27:47.217Z,6.97
2023-05-01T04:30:33.297Z,6.87
2023-05-01T04:33:19.005Z,7.00
2023-05-01T04:36:04.627Z,6.50
2023-05-01T04:38:50.140Z,6.60
2023-05-01T04:41:35.765Z,6.70
2023-05-01T04:44:23.144Z,6.40
2023-05-01T04:47:08.742Z,6.60
2023-05-01T04:49:55.280Z,6.73
2023-05-01T04:52:40.646Z,6.53
2023-05-01T04:55:29.164Z,6.37
2023-05-01T04:58:21.956Z,6.83
2023-05-01T05:01:10.898Z,6.87
2023-05-01T05:03:56.843Z,6.53
2023-05-01T05:06:42.398Z,6.47
2023-05-01T05:09:33.597Z,6.07
2023-05-01T05:12:19.308Z,5.93
2023-05-01T05:15:04.921Z,5.67
2023-05-01T05:17:50.118Z,5.93
2023-05-01T05:20:38.482Z,5.77
2023-05-01T05:23:23.742Z,6.23
2023-05-01T05:26:09.286Z,6.33
2023-05-01T05:28:54.404Z,5.97
2023-05-01T05:31:39.990Z,5.77
2023-05-01T05:34:25.508Z,6.00
2023-05-01T05:37:11.209Z,5.97
2023-05-01T05:40:04.910Z,6.37
2023-05-01T05:42:57.126Z,5.80
2023-05-01T05:45:44.373Z,6.13
2023-05-01T05:48:29.461Z,5.47
2023-05-01T05:51:14.583Z,5.57
2023-05-01T05:54:00.071Z,6.53
2023-05-01T05:56:45.391Z,5.97
2023-05-01T05:59:31.732Z,6.60
2023-05-01T06:02:17.361Z,6.20
2023-05-01T06:05:03.529Z,6.43
2023-05-01T06:07:49.189Z,6.43
2023-05-01T06:10:35.100Z,6.60
2023-05-01T06:13:20.435Z,6.40
2023-05-01T06:16:07.981Z,6.53
2023-05-01T06:18:53.500Z,6.30
2023-05-01T06:21:38.916Z,6.50
2023-05-01T06:24:24.591Z,6.38
2023-05-01T06:27:11.490Z,7.25
2023-05-01T06:29:57.357Z,6.82
2023-05-01T06:32:42.952Z,7.18
2023-05-01T06:35:29.698Z,7.05
2023-05-01T06:38:14.882Z,6.78
2023-05-01T06:41:00.319Z,6.78
2023-05-01T06:43:45.557Z,6.60
2023-05-01T06:46:30.803Z,6.90
2023-05-01T06:49:15.966Z,7.10
2023-05-01T06:52:01.972Z,7.22
2023-05-01T06:54:47.510Z,8.10
2023-05-01T06:57:33.009Z,8.05
2023-05-01T07:00:18.724Z,7.35
2023-05-01T07:03:05.163Z,8.18
2023-05-01T07:05:50.167Z,7.45
2023-05-01T07:08:35.884Z,8.20
2023-05-01T07:11:21.478Z,8.27
2023-05-01T07:14:06.695Z,8.00
2023-05-01T07:16:51.953Z,8.35
2023-05-01T07:19:37.526Z,9.13
2023-05-01T07:22:22.902Z,8.60
2023-05-01T07:25:08.832Z,8.45
2023-05-01T07:27:54.374Z,8.43
2023-05-01T07:30:40.311Z,8.43
2023-05-01T07:33:25.332Z,9.32
2023-05-01T07:36:10.962Z,9.15
2023-05-01T07:38:56.467Z,9.48
2023-05-01T07:41:41.986Z,9.30
2023-05-01T07:44:27.410Z,10.48
2023-05-01T07:47:13.213Z,11.20
2023-05-01T07:49:58.819Z,10.00
2023-05-01T07:52:44.533Z,11.27
2023-05-01T07:55:29.760Z,10.85
2023-05-01T07:58:17.754Z,10.63
2023-05-01T08:01:04.050Z,10.65
2023-05-01T08:03:51.001Z,10.88
2023-05-01T08:06:36.824Z,11.02
2023-05-01T08:09:22.329Z,10.25
2023-05-01T08:12:07.752Z,10.38
2023-05-01T08:14:53.288Z,10.95
2023-05-01T08:17:38.457Z,10.05
2023-05-01T08:20:24.056Z,10.70
2023-05-01T08:23:09.191Z,10.35
2023-05-01T08:25:55.042Z,9.80
2023-05-01T08:28:40.552Z,10.75
2023-05-01T08:31:25.844Z,11.10
2023-05-01T08:34:11.425Z,10.45
2023-05-01T08:36:56.717Z,11.20
2023-05-01T08:39:41.927Z,10.63
2023-05-01T08:42:29.881Z,10.75
2023-05-01T08:45:19.238Z,10.95
2023-05-01T08:48:08.710Z,10.90
2023-05-01T08:50:56.682Z,10.32
2023-05-01T08:53:43.677Z,10.85
2023-05-01T08:56:31.372Z,10.77
2023-05-01T08:59:18.166Z,10.07
2023-05-01T09:02:05.267Z,9.65
2023-05-01T09:04:51.127Z,10.27
2023-05-01T09:07:37.585Z,9.77
2023-05-01T09:10:24.365Z,10.05
2023-05-01T09:13:09.967Z,9.73
2023-05-01T09:15:55.610Z,9.93
2023-05-01T09:18:41.596Z,9.18
2023-05-01T09:21:30.305Z,9.50
2023-05-01T09:24:15.561Z,9.15
2023-05-01T09:27:00.748Z,9.27
2023-05-01T09:29:47.684Z,8.88
2023-05-01T09:32:33.578Z,8.55
2023-05-01T09:35:18.762Z,8.02
2023-05-01T09:38:04.187Z,8.30
2023-05-01T09:40:50.056Z,7.88
2023-05-01T09:43:35.677Z,7.68
2023-05-01T09:46:22.234Z,7.75
2023-05-01T09:49:07.617Z,7.50
2023-05-01T09:51:53.074Z,6.90
2023-05-01T09:54:38.408Z,7.35
2023-05-01T09:57:43.319Z,7.70
2023-05-01T10:00:28.955Z,7.65
2023-05-01T10:03:14.413Z,7.10
2023-05-01T10:06:00.381Z,7.25
2023-05-01T10:08:50.196Z,7.25
2023-05-01T10:12:04.687Z,6.97
2023-05-01T10:14:53.861Z,6.38
2023-05-01T10:17:40.821Z,7.00
2023-05-01T10:20:26.262Z,6.28
2023-05-01T10:23:11.803Z,5.75
2023-05-01T10:26:00.857Z,5.65
2023-05-01T10:28:49.273Z,5.40
2023-05-01T10:31:34.526Z,5.25
2023-05-01T10:34:25.010Z,4.88
2023-05-01T10:37:22.742Z,5.10
2023-05-01T10:40:40.877Z,5.05
2023-05-01T10:43:31.106Z,4.55
2023-05-01T10:46:19.277Z,4.50
2023-05-01T10:49:07.440Z,4.63
2023-05-01T10:51:58.875Z,3.33
2023-05-01T10:54:44.072Z,3.08
2023-05-01T10:57:42.771Z,3.00
2023-05-01T11:00:28.377Z,2.78
2023-05-01T11:03:23.395Z,1.95
2023-05-01T11:06:09.208Z,2.03
2023-05-01T11:08:55.240Z,1.92
2023-05-01T11:11:40.452Z,1.60
2023-05-01T11:14:25.825Z,1.38
2023-05-01T11:17:11.399Z,1.50
2023-05-01T11:19:56.582Z,1.90
2023-05-01T11:22:45.277Z,1.70
2023-05-01T11:25:31.533Z,1.30
2023-05-01T11:28:19.641Z,1.30
2023-05-01T11:31:05.377Z,1.50
2023-05-01T11:33:51.136Z,1.25
2023-05-01T11:36:50.129Z,1.30
2023-05-01T11:39:35.361Z,1.25
2023-05-01T11:42:21.725Z,1.05
2023-05-01T11:45:08.562Z,1.10
2023-05-01T11:47:54.293Z,1.50
2023-05-01T11:50:39.403Z,1.40
2023-05-01T11:53:24.832Z,1.75
2023-05-01T11:56:26.384Z,2.00
2023-05-01T11:59:15.006Z,2.00
2023-05-01T12:02:00.384Z,1.50
2023-05-01T12:04:45.766Z,1.75
2023-05-01T12:07:31.078Z,2.35
2023-05-01T12:10:18.049Z,2.22
2023-05-01T12:13:04.635Z,2.22
2023-05-01T12:15:52.135Z,2.28
2023-05-01T12:18:37.480Z,2.40
2023-05-01T12:21:22.652Z,2.20
2023-05-01T12:24:17.998Z,2.17
2023-05-01T12:27:03.282Z,2.38
2023-05-01T12:29:49.204Z,6.03
2023-05-01T12:32:34.646Z,3.38
2023-05-01T12:35:20.403Z,3.05
2023-05-01T12:38:13.867Z,2.50
2023-05-01T12:40:59.954Z,2.38
2023-05-01T12:43:45.216Z,1.88
2023-05-01T12:46:30.856Z,1.75
2023-05-01T12:49:18.328Z,1.70
2023-05-01T12:52:05.735Z,1.83
2023-05-01T12:54:51.106Z,2.10
2023-05-01T12:57:36.233Z,1.98
2023-05-01T13:00:21.683Z,1.75
2023-05-01T13:03:06.955Z,1.60
2023-05-01T13:05:58.313Z,9.45
2023-05-01T13:08:44.175Z,2.78
2023-05-01T13:11:29.714Z,2.20
2023-05-01T13:14:15.019Z,2.08
2023-05-01T13:17:02.070Z,2.28
2023-05-01T13:19:53.559Z,2.00
2023-05-01T13:22:39.349Z,2.50
2023-05-01T13:25:24.582Z,2.42
2023-05-01T13:28:10.009Z,2.50
2023-05-01T13:30:55.423Z,2.75
2023-05-01T13:33:42.333Z,2.38
2023-05-01T13:36:31.678Z,2.50
2023-05-01T13:39:21.267Z,2.55
2023-05-01T13:42:06.735Z,2.30
2023-05-01T13:44:55.214Z,2.35
2023-05-01T13:47:41.903Z,2.30
2023-05-01T13:50:27.427Z,2.17
2023-05-01T13:53:13.808Z,1.90
2023-05-01T13:55:59.365Z,2.17
2023-05-01T13:58:44.728Z,2.13
2023-05-01T14:01:29.982Z,2.47
2023-05-01T14:04:17.432Z,3.08
2023-05-01T14:07:03.041Z,2.97
2023-05-01T14:09:56.771Z,3.22
2023-05-01T14:12:43.058Z,2.42
2023-05-01T14:15:28.172Z,2.60
2023-05-01T14:18:16.409Z,2.55
2023-05-01T14:21:02.052Z,2.00
2023-05-01T14:23:47.223Z,2.53
2023-05-01T14:26:32.395Z,1.90
2023-05-01T14:29:23.168Z,2.08
2023-05-01T14:32:08.843Z,1.90
2023-05-01T14:34:54.117Z,2.03
2023-05-01T14:37:39.144Z,1.90
2023-05-01T14:40:27.962Z,1.98
2023-05-01T14:43:16.001Z,1.70
2023-05-01T14:46:01.855Z,1.90
2023-05-01T14:48:47.323Z,2.10
2023-05-01T14:51:33.425Z,2.50
2023-05-01T14:54:19.116Z,2.67
2023-05-01T14:57:05.698Z,2.40
2023-05-01T14:59:50.902Z,2.50
2023-05-01T15:02:36.253Z,2.40
2023-05-01T15:05:21.876Z,2.30
2023-05-01T15:08:08.895Z,2.33
2023-05-01T15:10:54.251Z,2.95
2023-05-01T15:13:39.902Z,1.90
2023-05-01T15:16:27.821Z,2.30
2023-05-01T15:19:13.321Z,2.58
2023-05-01T15:21:58.706Z,1.95
2023-05-01T15:24:44.059Z,1.50
2023-05-01T15:27:29.209Z,1.20
2023-05-01T15:30:15.139Z,1.40
2023-05-01T15:33:01.561Z,1.63
2023-05-01T15:35:47.071Z,1.15
2023-05-01T15:38:32.373Z,1.60
2023-05-01T15:41:19.052Z,1.40
2023-05-01T15:44:04.906Z,1.38
2023-05-01T15:46:51.053Z,1.25
2023-05-01T15:49:36.214Z,1.40
2023-05-01T15:52:21.321Z,1.30
2023-05-01T15:55:07.214Z,1.17
2023-05-01T15:57:52.794Z,1.90
2023-05-01T16:00:37.977Z,1.83
2023-05-01T16:03:23.426Z,2.00
2023-05-01T16:06:09.000Z,1.50
2023-05-01T16:08:54.497Z,1.40
2023-05-01T16:11:40.053Z,1.05
2023-05-01T16:14:26.465Z,1.10
2023-05-01T16:17:11.893Z,1.27
2023-05-01T16:19:57.622Z,1.20
2023-05-01T16:22:43.588Z,1.30
2023-05-01T16:25:28.945Z,1.30
2023-05-01T16:28:16.224Z,1.50
2023-05-01T16:31:04.965Z,1.40
2023-05-01T16:33:56.234Z,1.05
2023-05-01T16:36:42.473Z,1.38
2023-05-01T16:39:28.081Z,1.40
2023-05-01T16:42:15.326Z,1.23
2023-05-01T16:45:01.992Z,1.67
2023-05-01T16:47:47.485Z,1.42
2023-05-01T16:50:32.915Z,1.70
2023-05-01T16:53:18.230Z,1.90
2023-05-01T16:56:04.396Z,25.75
2023-05-01T16:58:49.800Z,49.10
2023-05-01T17:01:35.320Z,3.70
2023-05-01T17:04:21.082Z,1.92
2023-05-01T17:07:07.491Z,2.53
2023-05-01T17:09:52.653Z,2.25
2023-05-01T17:12:37.760Z,1.73
2023-05-01T17:15:23.235Z,2.20
2023-05-01T17:18:08.865Z,1.70
2023-05-01T17:20:54.271Z,4.78
2023-05-01T17:23:39.720Z,1.83
2023-05-01T17:26:25.421Z,1.90
2023-05-01T17:29:10.866Z,1.90
2023-05-01T17:31:56.242Z,1.63
2023-05-01T17:34:41.604Z,1.52
2023-05-01T17:37:27.254Z,1.42
2023-05-01T17:40:12.831Z,2.13
2023-05-01T17:42:58.911Z,2.47
2023-05-01T17:45:44.107Z,2.00
2023-05-01T17:48:29.358Z,2.47
2023-05-01T17:51:14.869Z,2.30
2023-05-01T17:54:01.616Z,2.50
2023-05-01T17:56:47.125Z,2.95
2023-05-01T17:59:32.496Z,2.70
2023-05-01T18:02:17.771Z,2.97
2023-05-01T18:05:03.845Z,3.00
2023-05-01T18:07:51.978Z,3.20
2023-05-01T18:10:38.215Z,3.22
2023-05-01T18:13:23.729Z,2.90
2023-05-01T18:16:09.319Z,2.88
2023-05-01T18:18:54.755Z,3.30
2023-05-01T18:21:40.256Z,2.83
2023-05-01T18:24:25.437Z,2.85
2023-05-01T18:27:11.688Z,2.72
2023-05-01T18:29:57.043Z,2.60
2023-05-01T18:32:48.371Z,2.80
2023-05-01T18:35:35.069Z,2.67
2023-05-01T18:38:20.721Z,2.92
2023-05-01T18:41:06.040Z,2.80
2023-05-01T18:43:55.588Z,3.20
2023-05-01T18:46:42.899Z,3.20
2023-05-01T18:49:29.118Z,3.30
2023-05-01T18:52:14.462Z,3.33
2023-05-01T18:55:00.418Z,3.35
2023-05-01T18:57:45.839Z,3.80
2023-05-01T19:00:31.259Z,4.07
2023-05-01T19:03:16.641Z,4.20
2023-05-01T19:06:02.362Z,4.00
2023-05-01T19:08:47.972Z,4.10
2023-05-01T19:11:33.151Z,4.40
2023-05-01T19:14:18.430Z,4.50
2023-05-01T19:17:04.758Z,4.72
2023-05-01T19:19:50.020Z,7.80
2023-05-01T19:22:35.238Z,10.73
2023-05-01T19:25:20.661Z,15.75
2023-05-01T19:28:06.094Z,12.35
2023-05-01T19:30:51.267Z,9.07
2023-05-01T19:33:36.702Z,5.07
2023-05-01T19:36:22.040Z,6.70
2023-05-01T19:39:07.308Z,3.65
2023-05-01T19:41:52.766Z,6.40
2023-05-01T19:44:38.627Z,3.53
2023-05-01T19:47:24.251Z,3.60
2023-05-01T19:50:11.046Z,3.63
2023-05-01T19:52:56.170Z,5.72
2023-05-01T19:55:41.798Z,4.63
2023-05-01T19:58:27.135Z,4.00
2023-05-01T20:01:12.721Z,4.07
2023-05-01T20:03:58.207Z,3.70
2023-05-01T20:06:43.433Z,3.50
2023-05-01T20:09:28.970Z,3.30
2023-05-01T20:12:14.235Z,3.28
2023-05-01T20:15:00.417Z,3.47
2023-05-01T20:17:46.413Z,3.55
2023-05-01T20:20:31.998Z,3.40
2023-05-01T20:23:18.813Z,3.55
2023-05-01T20:26:04.289Z,3.67
2023-05-01T20:28:49.763Z,3.60
2023-05-01T20:31:35.307Z,3.72
2023-05-01T20:34:23.178Z,3.75
2023-05-01T20:37:08.545Z,3.78
2023-05-01T20:39:53.910Z,3.85
2023-05-01T20:42:39.383Z,3.55
2023-05-01T20:45:25.804Z,3.47
2023-05-01T20:48:10.992Z,3.65
2023-05-01T20:50:56.094Z,3.55
2023-05-01T20:53:41.334Z,3.60
2023-05-01T20:56:26.950Z,3.70
2023-05-01T20:59:12.384Z,3.35
2023-05-01T21:01:57.619Z,3.40
2023-05-01T21:04:43.164Z,3.80
2023-05-01T21:07:29.656Z,3.50
2023-05-01T21:10:14.791Z,3.78
2023-05-01T21:13:00.231Z,3.85
2023-05-01T21:15:45.678Z,3.60
2023-05-01T21:18:33.337Z,3.33
2023-05-01T21:21:18.848Z,3.70
2023-05-01T21:24:04.976Z,3.67
2023-05-01T21:26:50.529Z,3.85
2023-05-01T21:29:36.124Z,4.00
2023-05-01T21:32:32.906Z,3.47
2023-05-01T21:35:20.635Z,3.80
2023-05-01T21:38:06.213Z,3.80
2023-05-01T21:40:51.995Z,4.10
2023-05-01T21:43:37.705Z,4.28
2023-05-01T21:46:23.292Z,3.95
2023-05-01T21:49:11.372Z,4.20
2023-05-01T21:52:00.747Z,4.47
2023-05-01T21:54:46.141Z,3.90
2023-05-01T21:57:31.930Z,4.63
2023-05-01T22:00:17.560Z,4.07
2023-05-01T22:03:06.588Z,5.40
2023-05-01T22:05:51.812Z,4.88
2023-05-01T22:08:37.054Z,4.40
2023-05-01T22:11:22.207Z,4.15
2023-05-01T22:14:07.635Z,3.97
2023-05-01T22:16:53.049Z,3.97
2023-05-01T22:19:38.218Z,4.28
2023-05-01T22:22:23.512Z,5.45
2023-05-01T22:25:10.066Z,7.00
2023-05-01T22:27:55.108Z,8.52
2023-05-01T22:30:40.274Z,4.82
2023-05-01T22:33:25.823Z,6.13
2023-05-01T22:36:11.294Z,5.47
2023-05-01T22:38:56.599Z,4.30
2023-05-01T22:41:41.786Z,4.80
2023-05-01T22:44:27.309Z,4.95
2023-05-01T22:47:12.942Z,4.32
2023-05-01T22:49:58.392Z,4.47
2023-05-01T22:52:45.867Z,4.10
2023-05-01T22:55:32.778Z,4.50
2023-05-01T22:58:18.187Z,4.60
2023-05-01T23:01:03.466Z,4.43
2023-05-01T23:03:50.292Z,4.53
2023-05-01T23:06:35.961Z,4.55
2023-05-01T23:09:23.592Z,4.70
2023-05-01T23:12:16.556Z,4.90
2023-05-01T23:15:02.592Z,4.50
2023-05-01T23:17:49.540Z,4.13
2023-05-01T23:20:35.013Z,4.47
2023-05-01T23:23:20.487Z,4.47
2023-05-01T23:26:06.288Z,4.70
2023-05-01T23:28:52.626Z,4.32
2023-05-01T23:31:44.124Z,4.47
2023-05-01T23:34:29.496Z,4.18
2023-05-01T23:37:14.848Z,4.20
2023-05-01T23:40:00.226Z,4.35
2023-05-01T23:42:46.311Z,4.25
2023-05-01T23:45:31.610Z,4.38
2023-05-01T23:48:17.316Z,4.40
2023-05-01T23:51:03.279Z,4.22
2023-05-01T23:53:48.647Z,3.85
2023-05-01T23:56:33.811Z,4.20
2023-05-01T23:59:18.987Z,4.50
